Time;durP1;ratioP1;P1;durP2;ratioP2;P2;SDS_P1;SDS_P2;PMS_P1;PMS_P2;Temp;Humidity;BMP_temperature;BMP_pressure;BME280_temperature;BME280_humidity;BME280_pressure;Samples;Min_cycle;Max_cycle;Signal;HPM_P1;HPM_P2
2021/05/25 00:02:13;;;;;;;;;;;;;;;12.96;69.63;100893.46;1779499;80;20215;-63
2021/05/25 00:04:40;;;;;;;;;;;;;;;12.96;69.63;100895.34;1780282;80;20151;-63
2021/05/25 00:07:08;;;;;;;;;;;;;;;12.94;69.59;100890.18;1780311;78;20155;-63
2021/05/25 00:09:36;;;;;;;;;;;;;;;12.90;69.66;100888.97;1780422;80;20175;-64
2021/05/25 00:12:03;;;;;;;;;;;;;;;12.86;69.74;100888.29;1781176;80;21629;-64
2021/05/25 00:14:30;;;;;;;;;;;;;;;12.80;69.85;100885.95;1781294;80;20234;-63
2021/05/25 00:16:59;;;;;;;;;;;;;;;12.79;69.95;100885.14;1781046;80;20159;-64
2021/05/25 00:19:25;;;;;;;;;;;;;;;12.78;69.95;100879.98;1780638;80;20568;-63
2021/05/25 00:21:52;;;;;;;;;;;;;;;12.78;69.95;100881.33;1781092;80;20163;-64
2021/05/25 00:24:19;;;;;;;;;;;;;;;12.76;69.97;100875.33;1781198;80;21045;-63
2021/05/25 00:26:47;;;;;;;;;;;;;;;12.75;69.97;100873.16;1780986;80;20564;-64
2021/05/25 00:29:13;;;;;;;;;;;;;;;12.78;69.92;100869.22;1781273;80;20207;-64
2021/05/25 00:31:41;;;;;;;;;;;;;;;12.74;69.88;100862.62;1781409;80;20171;-63
2021/05/25 00:34:07;;;;;;;;;;;;;;;12.73;69.96;100867.70;1781157;80;20164;-64
2021/05/25 00:36:36;;;;;;;;;;;;;;;12.74;70.01;100875.55;1781143;80;21085;-64
2021/05/25 00:39:04;;;;;;;;;;;;;;;12.74;69.97;100872.05;1777856;80;20156;-65
2021/05/25 00:41:31;;;;;;;;;;;;;;;12.76;69.98;100880.70;1780425;80;20155;-64
2021/05/25 00:43:58;;;;;;;;;;;;;;;12.84;69.88;100887.67;1780282;80;20160;-64
2021/05/25 00:46:25;;;;;;;;;;;;;;;12.86;69.73;100881.03;1777205;80;20176;-64
2021/05/25 00:48:53;;;;;;;;;;;;;;;12.91;69.48;100885.75;1780661;80;20147;-63
2021/05/25 00:51:20;;;;;;;;;;;;;;;12.89;69.36;100884.63;1780328;80;20549;-65
2021/05/25 00:53:46;;;;;;;;;;;;;;;12.86;69.32;100884.25;1781182;80;20188;-64
2021/05/25 00:56:13;;;;;;;;;;;;;;;12.78;69.39;100879.45;1781117;80;20187;-64
2021/05/25 00:58:40;;;;;;;;;;;;;;;12.73;69.59;100879.80;1780948;80;20183;-64
2021/05/25 01:01:07;;;;;;;;;;;;;;;12.72;69.77;100884.37;1780974;80;21109;-65
2021/05/25 01:03:34;;;;;;;;;;;;;;;12.76;69.87;100885.58;1781050;80;20160;-64
2021/05/25 01:06:02;;;;;;;;;;;;;;;12.82;69.84;100891.11;1780931;80;20545;-64
2021/05/25 01:08:28;;;;;;;;;;;;;;;12.86;69.71;100894.48;1781408;80;20191;-64
2021/05/25 01:11:01;;;;;;;;;;;;;;;12.88;69.64;100884.34;1780543;80;20223;-65
2021/05/25 01:13:27;;;;;;;;;;;;;;;12.92;69.57;100880.67;1780512;80;21099;-63
2021/05/25 01:15:54;;;;;;;;;;;;;;;12.94;69.38;100878.58;1780815;80;20159;-63
2021/05/25 01:18:21;;;;;;;;;;;;;;;12.92;69.26;100886.05;1781005;80;20207;-63
2021/05/25 01:20:50;;;;;;;;;;;;;;;12.93;69.20;100889.06;1780952;80;20183;-64
2021/05/25 01:23:16;;;;;;;;;;;;;;;12.93;68.97;100889.06;1780997;80;20156;-63
2021/05/25 01:25:46;;;;;;;;;;;;;;;12.91;68.89;100888.44;1781061;80;21053;-64
2021/05/25 01:28:13;;;;;;;;;;;;;;;12.91;68.91;100891.13;1780888;78;20179;-64
2021/05/25 01:30:42;;;;;;;;;;;;;;;12.93;68.80;100903.33;1776627;80;20124;-64
2021/05/25 01:33:09;;;;;;;;;;;;;;;12.93;68.72;100903.86;1781330;80;20346;-63
2021/05/25 01:35:36;;;;;;;;;;;;;;;12.93;68.67;100914.09;1781265;80;20219;-65
2021/05/25 01:38:04;;;;;;;;;;;;;;;12.90;68.48;100910.49;1781344;80;21632;-64
2021/05/25 01:40:32;;;;;;;;;;;;;;;12.87;68.42;100914.97;1781124;80;20175;-64
2021/05/25 01:42:59;;;;;;;;;;;;;;;12.82;68.48;100913.98;1781262;80;20179;-64
2021/05/25 01:45:27;;;;;;;;;;;;;;;12.76;68.56;100911.64;1778300;80;20200;-66
2021/05/25 01:47:54;;;;;;;;;;;;;;;12.73;68.69;100918.28;1781366;80;20556;-64
2021/05/25 01:50:21;;;;;;;;;;;;;;;12.73;68.56;100928.22;1781140;80;21089;-64
2021/05/25 01:52:59;;;;;;;;;;;;;;;12.72;68.48;100922.53;1781166;80;20180;-64
2021/05/25 01:55:31;;;;;;;;;;;;;;;12.70;68.49;100925.44;1754251;80;20171;-64
2021/05/25 01:58:01;;;;;;;;;;;;;;;12.70;68.55;100936.73;1777500;80;20366;-63
2021/05/25 02:00:28;;;;;;;;;;;;;;;12.72;68.66;100931.45;1781117;80;20155;-64
2021/05/25 02:02:54;;;;;;;;;;;;;;;12.77;68.59;100934.82;1781466;80;21094;-64
2021/05/25 02:05:21;;;;;;;;;;;;;;;12.83;68.50;100933.94;1780718;80;20203;-64
2021/05/25 02:07:49;;;;;;;;;;;;;;;12.87;68.27;100938.37;1780881;80;20175;-63
2021/05/25 02:10:33;;;;;;;;;;;;;;;12.85;68.09;100941.79;1781215;80;20140;-65
2021/05/25 02:13:05;;;;;;;;;;;;;;;12.82;68.01;100939.01;1780171;80;20187;-64
2021/05/25 02:15:32;;;;;;;;;;;;;;;12.77;68.02;100929.44;1780437;80;21098;-65
2021/05/25 02:18:11;;;;;;;;;;;;;;;12.71;68.08;100924.41;1780472;80;20148;-64
2021/05/25 02:20:39;;;;;;;;;;;;;;;12.66;68.22;100918.03;1781102;80;20188;-64
2021/05/25 02:23:06;;;;;;;;;;;;;;;12.61;68.40;100920.85;1781176;80;20175;-64
2021/05/25 02:25:33;;;;;;;;;;;;;;;12.61;68.46;100918.69;1781182;80;20590;-63
2021/05/25 02:28:01;;;;;;;;;;;;;;;12.63;68.45;100924.66;1781134;80;21104;-65
2021/05/25 02:30:28;;;;;;;;;;;;;;;12.66;68.47;100934.17;1781260;80;20152;-65
2021/05/25 02:32:56;;;;;;;;;;;;;;;12.74;68.34;100934.73;1781039;80;20156;-65
2021/05/25 02:35:23;;;;;;;;;;;;;;;12.82;68.12;100929.59;1781211;80;20517;-64
2021/05/25 02:37:50;;;;;;;;;;;;;;;12.91;67.93;100936.88;1781213;80;20207;-64
2021/05/25 02:40:17;;;;;;;;;;;;;;;12.97;67.95;100946.25;1780855;80;21105;-64
2021/05/25 02:42:44;;;;;;;;;;;;;;;13.02;67.79;100942.89;1777947;80;20555;-65
2021/05/25 02:45:11;;;;;;;;;;;;;;;13.08;67.53;100939.84;1781408;80;20124;-64
2021/05/25 02:47:39;;;;;;;;;;;;;;;13.13;67.21;100942.19;1781241;80;20207;-65
2021/05/25 02:50:07;;;;;;;;;;;;;;;13.20;67.04;100945.33;1780967;80;20243;-64
2021/05/25 02:52:36;;;;;;;;;;;;;;;13.23;66.70;100949.73;1780515;80;21102;-64
2021/05/25 02:55:05;;;;;;;;;;;;;;;13.26;66.78;100953.33;1780891;80;20226;-65
2021/05/25 02:57:33;;;;;;;;;;;;;;;13.29;66.80;100957.45;1780861;80;20544;-65
2021/05/25 03:00:00;;;;;;;;;;;;;;;13.32;66.82;100962.39;1781108;80;20155;-65
2021/05/25 03:02:27;;;;;;;;;;;;;;;13.34;66.61;100954.97;1776936;80;20140;-64
2021/05/25 03:04:54;;;;;;;;;;;;;;;13.39;66.50;100955.64;1776904;80;21079;-66
2021/05/25 03:07:21;;;;;;;;;;;;;;;13.45;66.51;100959.59;1776697;80;20172;-64
2021/05/25 03:09:48;;;;;;;;;;;;;;;13.52;66.44;100958.73;1776162;80;20552;-65
2021/05/25 03:12:15;;;;;;;;;;;;;;;13.58;66.32;100964.03;1778046;80;20188;-65
2021/05/25 03:14:42;;;;;;;;;;;;;;;13.63;66.09;100960.66;1740689;82;20184;-65
2021/05/25 03:17:08;;;;;;;;;;;;;;;13.68;65.93;100966.22;1747741;82;21095;-65
2021/05/25 03:19:36;;;;;;;;;;;;;;;13.73;65.72;100971.74;1743632;82;20166;-63
2021/05/25 03:22:04;;;;;;;;;;;;;;;13.79;65.60;100965.98;1784293;80;20139;-64
2021/05/25 03:24:31;;;;;;;;;;;;;;;13.84;65.50;100961.57;1784241;80;20147;-65
2021/05/25 03:26:58;;;;;;;;;;;;;;;13.91;65.36;100961.48;1783207;80;20161;-65
2021/05/25 03:29:25;;;;;;;;;;;;;;;13.98;65.23;100959.52;1784920;80;21809;-65
2021/05/25 03:31:51;;;;;;;;;;;;;;;14.04;65.12;100967.23;1784661;80;20517;-64
2021/05/25 03:34:18;;;;;;;;;;;;;;;14.11;64.96;100969.86;1784727;80;20175;-65
2021/05/25 03:36:45;;;;;;;;;;;;;;;14.17;64.77;100964.37;1784205;80;20267;-64
2021/05/25 03:39:11;;;;;;;;;;;;;;;14.28;64.81;100954.70;1784380;80;20182;-64
2021/05/25 03:41:38;;;;;;;;;;;;;;;14.54;64.58;100960.22;1784281;80;21086;-64
2021/05/25 03:44:06;;;;;;;;;;;;;;;15.36;63.68;100960.62;1784222;80;20139;-64
2021/05/25 03:46:33;;;;;;;;;;;;;;;16.64;61.26;100958.33;1783879;80;20124;-65
2021/05/25 03:49:00;;;;;;;;;;;;;;;18.16;57.83;100957.81;1784796;80;20251;-65
2021/05/25 03:51:27;;;;;;;;;;;;;;;19.65;53.33;100952.77;1781600;80;20211;-66
2021/05/25 03:53:55;;;;;;;;;;;;;;;20.95;50.13;100952.81;1776739;80;20127;-66
2021/05/25 03:56:29;;;;;;;;;;;;;;;22.15;47.16;100948.91;1776911;80;20187;-66
2021/05/25 03:58:51;;;;;;;;;;;;;;;23.12;43.88;100951.26;1775495;80;20136;-66
2021/05/25 04:01:20;;;;;;;;;;;;;;;23.95;41.36;100947.85;1774186;80;20203;-65
2021/05/25 04:03:49;;;;;;;;;;;;;;;24.46;40.01;100943.00;1765452;81;20156;-66
2021/05/25 04:06:15;;;;;;;;;;;;;;;24.52;39.67;100946.48;1765173;81;21059;-65
2021/05/25 04:08:44;;;;;;;;;;;;;;;24.51;38.45;100951.70;1765141;81;20230;-65
2021/05/25 04:11:10;;;;;;;;;;;;;;;24.08;38.79;100960.81;1765399;81;20164;-66
2021/05/25 04:13:37;;;;;;;;;;;;;;;23.34;40.71;100960.33;1734069;81;20228;-66
2021/05/25 04:16:04;;;;;;;;;;;;;;;23.01;41.97;100955.95;1765718;81;20215;-66
2021/05/25 04:18:31;;;;;;;;;;;;;;;23.43;41.46;100949.81;1765339;81;22210;-67
2021/05/25 04:20:57;;;;;;;;;;;;;;;24.34;40.54;100955.52;1737780;81;20235;-66
2021/05/25 04:23:24;;;;;;;;;;;;;;;25.35;38.61;100953.61;1765439;79;20196;-66
2021/05/25 04:25:50;;;;;;;;;;;;;;;26.33;36.86;100950.75;1765897;81;20152;-66
2021/05/25 04:28:17;;;;;;;;;;;;;;;27.20;36.01;100953.28;1765765;81;20176;-67
2021/05/25 04:30:44;;;;;;;;;;;;;;;28.06;34.51;100947.84;1765804;81;21657;-66
2021/05/25 04:33:10;;;;;;;;;;;;;;;28.91;32.92;100943.72;1765081;81;20203;-67
2021/05/25 04:35:38;;;;;;;;;;;;;;;29.64;31.20;100955.22;1765819;81;20171;-67
2021/05/25 04:38:05;;;;;;;;;;;;;;;30.22;29.39;100951.92;1765476;79;20591;-67
2021/05/25 04:40:33;;;;;;;;;;;;;;;30.62;29.12;100950.04;1765436;81;20239;-67
2021/05/25 04:43:00;;;;;;;;;;;;;;;31.03;29.36;100952.48;1765750;81;21765;-67
2021/05/25 04:45:26;;;;;;;;;;;;;;;31.46;27.98;100961.39;1765522;81;20175;-66
2021/05/25 04:47:53;;;;;;;;;;;;;;;31.80;27.35;100962.09;1765143;81;20199;-67
2021/05/25 04:50:20;;;;;;;;;;;;;;;32.14;25.85;100965.51;1764080;81;20328;-65
2021/05/25 04:52:49;;;;;;;;;;;;;;;32.34;26.27;100960.16;1764819;81;20195;-67
2021/05/25 04:55:17;;;;;;;;;;;;;;;32.60;25.20;100954.95;1764969;81;21090;-67
2021/05/25 04:57:44;;;;;;;;;;;;;;;32.68;24.99;100949.63;1764894;81;20216;-66
2021/05/25 05:00:14;;;;;;;;;;;;;;;32.80;25.45;100960.64;1765454;81;20243;-66
2021/05/25 05:02:40;;;;;;;;;;;;;;;33.05;24.30;100953.55;1771491;79;20159;-66
2021/05/25 05:05:08;;;;;;;;;;;;;;;33.26;24.87;100956.08;1776560;80;20190;-69
2021/05/25 05:07:34;;;;;;;;;;;;;;;33.56;24.24;100959.20;1776866;79;20869;-68
2021/05/25 05:10:01;;;;;;;;;;;;;;;33.80;23.85;100956.78;1776823;80;20493;-67
2021/05/25 05:12:27;;;;;;;;;;;;;;;33.99;24.13;100958.79;1776600;80;20195;-67
2021/05/25 05:14:56;;;;;;;;;;;;;;;34.16;23.01;100960.34;1776657;80;20163;-66
2021/05/25 05:17:24;;;;;;;;;;;;;;;34.23;23.17;100967.45;1776959;80;20160;-65
2021/05/25 05:19:52;;;;;;;;;;;;;;;34.33;23.92;100964.68;1775602;80;21251;-66
2021/05/25 05:22:18;;;;;;;;;;;;;;;34.57;22.78;100964.15;1718855;82;20499;-67
2021/05/25 05:24:46;;;;;;;;;;;;;;;34.80;23.32;100968.99;1736164;82;20158;-67
2021/05/25 05:27:13;;;;;;;;;;;;;;;34.84;22.19;100969.27;1738166;81;20189;-66
2021/05/25 05:29:39;;;;;;;;;;;;;;;34.79;22.80;100963.20;1736515;82;20230;-66
2021/05/25 05:32:06;;;;;;;;;;;;;;;34.85;22.85;100964.50;1736364;81;21100;-67
2021/05/25 05:34:33;;;;;;;;;;;;;;;35.01;21.94;100966.59;1743401;82;20267;-66
2021/05/25 05:37:00;;;;;;;;;;;;;;;35.06;21.96;100966.88;1783980;80;20956;-69
2021/05/25 05:39:26;;;;;;;;;;;;;;;35.06;22.54;100970.45;1783165;80;20140;-65
2021/05/25 05:41:54;;;;;;;;;;;;;;;35.05;21.44;100966.64;1783799;80;20159;-65
2021/05/25 05:44:21;;;;;;;;;;;;;;;34.57;21.24;100962.75;1784490;80;21765;-66
2021/05/25 05:46:47;;;;;;;;;;;;;;;33.84;22.08;100959.66;1784527;80;20163;-67
2021/05/25 05:49:14;;;;;;;;;;;;;;;33.37;22.91;100961.92;1783610;80;20175;-67
2021/05/25 05:51:41;;;;;;;;;;;;;;;33.11;23.77;100964.05;1784431;80;20567;-66
2021/05/25 05:54:11;;;;;;;;;;;;;;;33.00;23.43;100963.75;1785044;80;20721;-65
2021/05/25 05:56:37;;;;;;;;;;;;;;;32.66;24.00;100961.05;1784888;80;21081;-67
2021/05/25 05:59:04;;;;;;;;;;;;;;;32.33;25.44;100962.09;1784436;80;20645;-66
2021/05/25 06:01:31;;;;;;;;;;;;;;;32.15;25.03;100958.81;1784285;80;20136;-66
2021/05/25 06:03:58;;;;;;;;;;;;;;;31.39;24.85;100957.00;1783125;80;20548;-69
2021/05/25 06:06:24;;;;;;;;;;;;;;;30.14;27.34;100958.32;1784292;78;20175;-66
2021/05/25 06:08:51;;;;;;;;;;;;;;;29.42;28.50;100953.55;1783616;80;21105;-67
2021/05/25 06:11:18;;;;;;;;;;;;;;;28.95;28.86;100946.06;1783680;80;20254;-65
2021/05/25 06:13:45;;;;;;;;;;;;;;;28.49;29.81;100940.12;1784464;80;20140;-65
2021/05/25 06:16:12;;;;;;;;;;;;;;;28.08;30.15;100939.25;1780737;80;20139;-64
2021/05/25 06:18:40;;;;;;;;;;;;;;;27.52;30.77;100939.75;1781169;80;20560;-65
2021/05/25 06:21:07;;;;;;;;;;;;;;;26.77;31.82;100936.80;1784076;80;21083;-66
2021/05/25 06:23:34;;;;;;;;;;;;;;;25.97;33.45;100934.50;1784475;80;20159;-66
2021/05/25 06:26:00;;;;;;;;;;;;;;;25.49;34.62;100927.53;1784115;80;20172;-65
2021/05/25 06:28:28;;;;;;;;;;;;;;;25.21;35.07;100927.25;1784067;80;20179;-65
2021/05/25 06:30:55;;;;;;;;;;;;;;;24.91;35.74;100928.05;1778258;80;20554;-65
2021/05/25 06:33:21;;;;;;;;;;;;;;;24.44;36.54;100916.47;1783521;80;21052;-65
2021/05/25 06:35:49;;;;;;;;;;;;;;;24.15;38.29;100915.27;1780472;80;20259;-65
2021/05/25 06:38:16;;;;;;;;;;;;;;;24.04;37.79;100915.15;1780145;80;20208;-65
2021/05/25 06:40:45;;;;;;;;;;;;;;;23.70;37.81;100915.56;1781753;80;20179;-65
2021/05/25 06:43:11;;;;;;;;;;;;;;;23.25;38.45;100913.66;1780946;80;20552;-65
2021/05/25 06:45:38;;;;;;;;;;;;;;;22.81;39.34;100909.15;1784189;80;21679;-65
2021/05/25 06:48:05;;;;;;;;;;;;;;;22.45;40.17;100916.26;1784751;80;20187;-67
2021/05/25 06:50:32;;;;;;;;;;;;;;;22.25;41.56;100919.94;1750170;82;20181;-66
2021/05/25 06:52:59;;;;;;;;;;;;;;;22.32;42.10;100923.17;1692043;83;20588;-64
2021/05/25 06:55:26;;;;;;;;;;;;;;;22.42;41.72;100920.92;1744331;82;20181;-66
2021/05/25 06:57:53;;;;;;;;;;;;;;;22.44;41.98;100911.89;1784843;80;21081;-65
2021/05/25 07:00:21;;;;;;;;;;;;;;;22.51;41.54;100923.31;1779683;80;20175;-65
2021/05/25 07:02:48;;;;;;;;;;;;;;;22.48;41.26;100911.59;1784515;80;20123;-64
2021/05/25 07:05:14;;;;;;;;;;;;;;;22.35;42.07;100914.44;1784253;80;20179;-66
2021/05/25 07:07:41;;;;;;;;;;;;;;;22.26;42.11;100923.75;1783958;78;20155;-65
2021/05/25 07:10:09;;;;;;;;;;;;;;;22.29;42.73;100926.44;1782767;80;21057;-65
2021/05/25 07:12:36;;;;;;;;;;;;;;;22.44;42.74;100913.25;1783980;80;20231;-65
2021/05/25 07:15:04;;;;;;;;;;;;;;;22.60;42.29;100911.22;1784514;80;20159;-65
2021/05/25 07:17:31;;;;;;;;;;;;;;;22.67;41.25;100907.08;1783937;80;20148;-65
2021/05/25 07:19:57;;;;;;;;;;;;;;;22.60;42.22;100911.22;1780434;80;20203;-66
2021/05/25 07:22:24;;;;;;;;;;;;;;;22.57;42.33;100904.44;1778084;80;20594;-65
2021/05/25 07:24:51;;;;;;;;;;;;;;;22.53;41.95;100900.08;1778139;80;20524;-66
2021/05/25 07:27:17;;;;;;;;;;;;;;;22.57;43.44;100901.14;1777067;80;20171;-67
2021/05/25 07:29:44;;;;;;;;;;;;;;;22.81;40.88;100897.66;1777486;80;20263;-66
2021/05/25 07:32:11;;;;;;;;;;;;;;;22.96;42.16;100891.78;1776931;80;20123;-64
2021/05/25 07:34:37;;;;;;;;;;;;;;;23.23;41.55;100892.07;1775632;80;21628;-65
2021/05/25 07:37:04;;;;;;;;;;;;;;;23.52;41.16;100898.01;1776673;80;20155;-66
2021/05/25 07:39:31;;;;;;;;;;;;;;;23.82;40.65;100896.53;1776712;80;20124;-65
2021/05/25 07:41:58;;;;;;;;;;;;;;;24.03;39.47;100894.34;1776711;80;20544;-65
2021/05/25 07:44:25;;;;;;;;;;;;;;;24.11;38.34;100890.95;1776193;80;20156;-65
2021/05/25 07:46:53;;;;;;;;;;;;;;;24.07;38.23;100888.02;1776447;80;21096;-65
2021/05/25 07:49:19;;;;;;;;;;;;;;;23.92;37.97;100888.22;1776505;80;20721;-65
2021/05/25 07:51:46;;;;;;;;;;;;;;;23.67;39.31;100883.88;1776252;80;20132;-64
2021/05/25 07:54:13;;;;;;;;;;;;;;;23.48;39.46;100887.95;1775174;80;20180;-64
2021/05/25 07:56:41;;;;;;;;;;;;;;;23.32;40.12;100889.52;1776132;80;20532;-65
2021/05/25 07:59:08;;;;;;;;;;;;;;;23.36;40.29;100887.80;1776088;80;21104;-64
2021/05/25 08:01:35;;;;;;;;;;;;;;;23.41;40.47;100882.28;1776549;80;20199;-66
2021/05/25 08:04:03;;;;;;;;;;;;;;;23.46;40.46;100869.09;1776744;80;20160;-66
2021/05/25 08:06:30;;;;;;;;;;;;;;;23.54;39.86;100879.39;1776674;80;20184;-66
2021/05/25 08:08:56;;;;;;;;;;;;;;;23.52;40.16;100880.23;1776810;80;20159;-65
2021/05/25 08:11:23;;;;;;;;;;;;;;;23.41;40.67;100885.02;1776719;80;21071;-66
2021/05/25 08:13:49;;;;;;;;;;;;;;;23.49;40.80;100886.28;1778219;80;20179;-66
2021/05/25 08:16:19;;;;;;;;;;;;;;;23.64;39.88;100875.70;1776717;80;20149;-66
2021/05/25 08:19:06;;;;;;;;;;;;;;;23.75;40.07;100877.20;1770945;80;20188;-65
2021/05/25 08:21:18;;;;;;;;;;;;;;;23.88;40.13;100870.75;1774033;80;20116;-65
2021/05/25 08:23:46;;;;;;;;;;;;;;;24.02;40.16;100871.64;1776913;80;21061;-66
2021/05/25 08:26:13;;;;;;;;;;;;;;;24.17;40.08;100877.44;1776948;80;20595;-65
2021/05/25 08:28:40;;;;;;;;;;;;;;;24.32;39.71;100877.75;1776906;80;20164;-65
2021/05/25 08:31:07;;;;;;;;;;;;;;;24.45;38.24;100875.61;1776930;80;20160;-65
2021/05/25 08:33:33;;;;;;;;;;;;;;;24.47;38.26;100878.88;1778299;80;20179;-65
2021/05/25 08:36:00;;;;;;;;;;;;;;;24.38;38.35;100872.47;1778774;80;21105;-65
2021/05/25 08:38:27;;;;;;;;;;;;;;;24.35;38.58;100876.34;1776811;80;20176;-64
2021/05/25 08:40:54;;;;;;;;;;;;;;;24.21;37.27;100870.26;1776706;80;20215;-64
2021/05/25 08:43:22;;;;;;;;;;;;;;;24.01;38.69;100874.68;1776457;80;20167;-66
2021/05/25 08:45:49;;;;;;;;;;;;;;;23.96;38.45;100879.67;1776689;80;20222;-65
2021/05/25 08:48:16;;;;;;;;;;;;;;;23.86;38.13;100874.34;1776721;80;21113;-65
2021/05/25 08:50:42;;;;;;;;;;;;;;;23.72;37.83;100872.88;1777125;80;20175;-65
2021/05/25 08:53:09;;;;;;;;;;;;;;;23.66;36.16;100877.60;1776467;80;20220;-65
2021/05/25 08:55:37;;;;;;;;;;;;;;;23.44;36.53;100883.63;1775678;80;20215;-65
2021/05/25 08:58:05;;;;;;;;;;;;;;;23.27;36.91;100883.52;1776815;80;20167;-65
2021/05/25 09:00:33;;;;;;;;;;;;;;;23.18;37.27;100883.11;1776692;80;21107;-64
2021/05/25 09:03:00;;;;;;;;;;;;;;;23.11;36.67;100877.16;1773800;80;20641;-64
2021/05/25 09:05:27;;;;;;;;;;;;;;;22.86;37.52;100879.83;1765040;79;20175;-66
2021/05/25 09:07:55;;;;;;;;;;;;;;;22.68;38.98;100882.73;1764978;81;20216;-65
2021/05/25 09:10:37;;;;;;;;;;;;;;;22.49;39.42;100881.26;1765159;81;20187;-65
2021/05/25 09:13:03;;;;;;;;;;;;;;;22.48;37.93;100885.64;1765395;81;21104;-64
2021/05/25 09:15:40;;;;;;;;;;;;;;;22.42;39.60;100881.33;1765287;81;20215;-64
2021/05/25 09:18:12;;;;;;;;;;;;;;;22.29;40.02;100877.29;1761833;81;20212;-66
2021/05/25 09:20:41;;;;;;;;;;;;;;;22.26;40.49;100877.86;1764386;81;20596;-66
2021/05/25 09:23:09;;;;;;;;;;;;;;;22.38;40.04;100876.44;1765150;81;20560;-65
2021/05/25 09:25:35;;;;;;;;;;;;;;;22.51;40.50;100883.17;1765041;81;21077;-65
2021/05/25 09:28:13;;;;;;;;;;;;;;;22.70;39.21;100881.91;1765381;81;20180;-65
2021/05/25 09:30:42;;;;;;;;;;;;;;;22.84;38.94;100881.24;1764308;81;20164;-65
2021/05/25 09:33:09;;;;;;;;;;;;;;;22.84;38.50;100881.24;1764478;81;20195;-65
2021/05/25 09:35:38;;;;;;;;;;;;;;;22.63;39.78;100879.23;1765473;81;20191;-65
2021/05/25 09:38:12;;;;;;;;;;;;;;;22.54;39.56;100872.20;1765031;81;21082;-66
2021/05/25 09:40:41;;;;;;;;;;;;;;;22.44;38.83;100864.09;1765273;81;20192;-65
2021/05/25 09:43:15;;;;;;;;;;;;;;;22.25;39.74;100871.59;1764900;81;20268;-65
2021/05/25 09:45:56;;;;;;;;;;;;;;;22.07;39.53;100876.35;1763692;81;20175;-67
2021/05/25 09:48:27;;;;;;;;;;;;;;;21.94;40.56;100873.73;1765112;81;20183;-66
2021/05/25 09:50:55;;;;;;;;;;;;;;;21.91;40.67;100868.80;1765158;81;21047;-64
2021/05/25 09:53:28;;;;;;;;;;;;;;;21.80;41.02;100863.41;1765588;79;20212;-64
2021/05/25 09:55:59;;;;;;;;;;;;;;;21.65;41.02;100860.22;1760005;81;20168;-65
2021/05/25 09:58:38;;;;;;;;;;;;;;;21.59;41.28;100846.91;1764997;79;20168;-64
2021/05/25 10:01:06;;;;;;;;;;;;;;;21.61;42.28;100842.80;1763437;81;20623;-65
2021/05/25 10:03:36;;;;;;;;;;;;;;;21.73;42.37;100836.17;1768296;80;20993;-66
2021/05/25 10:06:03;;;;;;;;;;;;;;;21.82;41.88;100838.03;1776162;80;20203;-66
2021/05/25 10:08:29;;;;;;;;;;;;;;;21.87;41.75;100840.72;1776634;80;20521;-64
2021/05/25 10:10:58;;;;;;;;;;;;;;;21.91;40.91;100839.63;1776401;80;20528;-64
2021/05/25 10:13:26;;;;;;;;;;;;;;;21.95;41.00;100839.86;1776425;80;20233;-66
2021/05/25 10:15:53;;;;;;;;;;;;;;;22.01;40.95;100836.82;1776681;80;21092;-66
2021/05/25 10:21:06;;;;;;;;;;;;;;;21.96;40.21;100837.41;1776197;80;20155;-65
2021/05/25 10:23:33;;;;;;;;;;;;;;;21.86;40.57;100832.28;1776734;80;20159;-65
2021/05/25 10:26:03;;;;;;;;;;;;;;;21.78;41.37;100841.05;1778735;80;20168;-65
2021/05/25 10:28:31;;;;;;;;;;;;;;;21.69;41.42;100834.02;1776185;80;21332;-65
2021/05/25 10:30:59;;;;;;;;;;;;;;;21.62;41.61;100832.70;1776769;80;20168;-64
2021/05/25 10:33:27;;;;;;;;;;;;;;;21.50;41.62;100825.66;1776942;80;20217;-66
2021/05/25 10:35:59;;;;;;;;;;;;;;;21.43;42.15;100823.75;1776131;80;20160;-65
2021/05/25 10:38:34;;;;;;;;;;;;;;;21.49;40.40;100815.00;1776433;80;20175;-66
2021/05/25 10:41:04;;;;;;;;;;;;;;;21.48;40.17;100814.19;1776551;80;21106;-65
2021/05/25 10:43:43;;;;;;;;;;;;;;;21.45;39.42;100805.21;1739096;82;20181;-65
2021/05/25 10:46:14;;;;;;;;;;;;;;;21.42;40.24;100804.41;1717046;83;20243;-65
2021/05/25 10:49:04;;;;;;;;;;;;;;;21.38;39.79;100810.67;1741607;82;20657;-65
2021/05/25 10:51:48;;;;;;;;;;;;;;;21.33;39.47;100801.98;1741078;82;20177;-65
2021/05/25 10:54:24;;;;;;;;;;;;;;;21.29;39.22;100799.02;1783333;80;21086;-66
2021/05/25 10:56:51;;;;;;;;;;;;;;;21.30;38.78;100808.83;1780361;80;20606;-66
2021/05/25 10:59:19;;;;;;;;;;;;;;;21.30;38.62;100805.27;1784429;80;20159;-67
2021/05/25 11:01:55;;;;;;;;;;;;;;;21.32;39.19;100807.19;1783294;80;20179;-65
2021/05/25 11:04:35;;;;;;;;;;;;;;;21.30;38.48;100795.72;1778740;80;20179;-66
2021/05/25 11:07:23;;;;;;;;;;;;;;;21.19;38.95;100793.61;1773091;81;21850;-65
2021/05/25 11:09:50;;;;;;;;;;;;;;;21.11;38.99;100797.73;1786377;79;20176;-66
2021/05/25 11:12:16;;;;;;;;;;;;;;;21.05;39.33;100792.56;1764417;81;20228;-66
2021/05/25 11:15:15;;;;;;;;;;;;;;;21.03;39.42;100783.30;1765847;81;20156;-65
2021/05/25 11:17:49;;;;;;;;;;;;;;;21.04;39.30;100786.83;1764891;81;20203;-64
2021/05/25 11:20:38;;;;;;;;;;;;;;;21.07;39.97;100784.91;1764768;81;20623;-65
2021/05/25 11:22:59;;;;;;;;;;;;;;;21.11;39.99;100782.73;1762462;81;20556;-66
2021/05/25 11:25:40;;;;;;;;;;;;;;;21.09;39.48;100777.29;1765181;81;20167;-66
2021/05/25 11:28:06;;;;;;;;;;;;;;;21.03;40.61;100773.77;1765017;81;20175;-66
2021/05/25 11:30:37;;;;;;;;;;;;;;;21.08;40.41;100775.13;1765675;81;20573;-65
2021/05/25 11:33:03;;;;;;;;;;;;;;;21.14;40.30;100773.16;1765607;81;21280;-64
2021/05/25 11:35:33;;;;;;;;;;;;;;;21.16;40.10;100763.63;1738039;81;20235;-65
2021/05/25 11:38:03;;;;;;;;;;;;;;;21.15;39.60;100772.08;1765535;79;20560;-64
2021/05/25 11:40:31;;;;;;;;;;;;;;;21.08;40.44;100755.20;1765310;81;20251;-66
2021/05/25 11:42:58;;;;;;;;;;;;;;;21.10;41.03;100759.85;1765339;79;20212;-66
2021/05/25 11:45:26;;;;;;;;;;;;;;;21.12;40.29;100759.02;1765688;81;21086;-65
2021/05/25 11:48:04;;;;;;;;;;;;;;;21.08;40.71;100763.38;1764999;81;20169;-64
2021/05/25 11:50:38;;;;;;;;;;;;;;;21.07;40.72;100765.30;1765177;81;20227;-66
2021/05/25 11:53:05;;;;;;;;;;;;;;;21.07;41.01;100759.86;1765578;81;20252;-65
2021/05/25 11:55:34;;;;;;;;;;;;;;;21.04;41.40;100750.05;1767175;79;20176;-65
2021/05/25 11:58:00;;;;;;;;;;;;;;;21.06;41.84;100756.85;1760957;81;21091;-66
2021/05/25 12:00:28;;;;;;;;;;;;;;;21.10;42.26;100758.48;1762879;81;20168;-65
2021/05/25 12:02:56;;;;;;;;;;;;;;;21.16;42.04;100769.07;1765652;79;20600;-65
2021/05/25 12:05:25;;;;;;;;;;;;;;;21.22;41.43;100760.33;1773991;80;20183;-65
2021/05/25 12:07:59;;;;;;;;;;;;;;;21.25;41.65;100761.12;1776511;80;20151;-65
2021/05/25 12:10:30;;;;;;;;;;;;;;;21.20;41.42;100761.17;1774034;80;21141;-66
2021/05/25 12:13:09;;;;;;;;;;;;;;;21.15;41.77;100753.80;1776404;80;20139;-64
2021/05/25 12:15:41;;;;;;;;;;;;;;;21.14;42.34;100745.38;1775012;80;20147;-65
2021/05/25 12:18:09;;;;;;;;;;;;;;;21.18;42.45;100755.16;1774581;80;20596;-66
2021/05/25 12:20:44;;;;;;;;;;;;;;;21.24;42.03;100750.51;1776912;80;20171;-66
2021/05/25 12:23:15;;;;;;;;;;;;;;;21.29;42.42;100744.48;1776083;80;22199;-69
2021/05/25 12:25:42;;;;;;;;;;;;;;;21.39;42.18;100734.05;1771406;80;20549;-65
2021/05/25 12:28:12;;;;;;;;;;;;;;;21.48;41.51;100739.72;1776019;80;20176;-65
2021/05/25 12:30:43;;;;;;;;;;;;;;;21.49;41.46;100723.08;1776464;80;20224;-68
2021/05/25 12:33:21;;;;;;;;;;;;;;;21.49;41.80;100730.45;1776085;80;20537;-65
2021/05/25 12:35:48;;;;;;;;;;;;;;;21.47;41.04;100726.65;1775851;80;21096;-65
2021/05/25 12:38:16;;;;;;;;;;;;;;;21.43;41.55;100726.14;1776769;80;20152;-65
2021/05/25 12:40:45;;;;;;;;;;;;;;;21.43;41.39;100724.77;1776442;80;20160;-65
2021/05/25 12:43:17;;;;;;;;;;;;;;;21.42;41.54;100729.42;1776242;80;20144;-65
2021/05/25 12:45:45;;;;;;;;;;;;;;;21.39;41.33;100713.59;1773540;80;20235;-66